Time;durP1;ratioP1;P1;durP2;ratioP2;P2;SDS_P1;SDS_P2;PMS_P1;PMS_P2;Temp;Humidity;BMP_temperature;BMP_pressure;BME280_temperature;BME280_humidity;BME280_pressure;Samples;Min_cycle;Max_cycle;Signal;HPM_P1;HPM_P2
2022/01/20 00:02:19;;;;;;;23.90;12.52;;;7.60;99.90;;;;;;5049423;28;20233;-62
2022/01/20 00:04:51;;;;;;;12.10;6.85;;;7.60;99.90;;;;;;5043605;28;20264;-63
2022/01/20 00:07:40;;;;;;;19.45;13.07;;;7.70;99.90;;;;;;5051935;28;20242;-63
2022/01/20 00:26:49;;;;;;;11.57;5.78;;;7.60;99.90;;;;;;5051934;28;20282;-64
2022/01/20 00:29:25;;;;;;;16.00;7.40;;;7.60;99.90;;;;;;5060837;28;20225;-64
2022/01/20 00:32:03;;;;;;;17.55;7.72;;;7.60;99.90;;;;;;5052230;28;20225;-64
2022/01/20 00:35:04;;;;;;;16.45;9.95;;;7.70;99.90;;;;;;5051803;28;20226;-64
2022/01/20 00:37:31;;;;;;;12.35;5.32;;;7.70;99.90;;;;;;5051580;28;20248;-64
2022/01/20 00:39:58;;;;;;;19.40;7.65;;;7.60;99.90;;;;;;5051982;28;20222;-64
2022/01/20 00:42:26;;;;;;;12.07;7.00;;;7.70;99.90;;;;;;5051642;28;20226;-63
2022/01/20 00:44:54;;;;;;;38.88;19.42;;;7.70;99.90;;;;;;5045798;28;20220;-63
2022/01/20 00:47:21;;;;;;;25.40;10.27;;;7.70;99.90;;;;;;5051586;28;20219;-64
2022/01/20 00:49:49;;;;;;;20.50;12.70;;;7.70;99.90;;;;;;5051248;28;20696;-63
2022/01/20 00:52:16;;;;;;;26.48;13.98;;;7.70;99.90;;;;;;5042168;28;20578;-63
2022/01/20 00:54:43;;;;;;;28.13;15.15;;;7.60;99.90;;;;;;5051405;28;20212;-63
2022/01/20 00:57:10;;;;;;;14.85;7.68;;;7.60;99.90;;;;;;5051656;28;20226;-63
2022/01/20 00:59:37;;;;;;;21.05;9.10;;;7.50;99.90;;;;;;5051498;28;20568;-64
2022/01/20 01:02:09;;;;;;;33.72;20.30;;;7.50;99.90;;;;;;5051407;28;20217;-64
2022/01/20 01:04:36;;;;;;;14.52;6.20;;;7.50;99.90;;;;;;5050971;28;20218;-63
2022/01/20 01:07:22;;;;;;;11.05;5.57;;;7.50;99.90;;;;;;5051779;28;20232;-64
2022/01/20 01:09:49;;;;;;;11.52;5.47;;;7.40;99.90;;;;;;5051842;28;21027;-65
2022/01/20 01:12:23;;;;;;;11.85;4.60;;;7.50;99.90;;;;;;5051734;28;20223;-65
2022/01/20 01:14:52;;;;;;;21.38;9.13;;;7.50;99.90;;;;;;5051613;28;20252;-65
2022/01/20 01:20:16;;;;;;;16.13;4.80;;;7.40;99.90;;;;;;5049000;28;20230;-65
2022/01/20 01:22:43;;;;;;;11.07;3.83;;;7.40;99.90;;;;;;5047532;28;20222;-65
2022/01/20 01:25:10;;;;;;;12.43;7.10;;;7.20;99.90;;;;;;5054189;28;20238;-65
2022/01/20 01:27:40;;;;;;;19.48;5.85;;;7.30;99.90;;;;;;5055125;28;20228;-63
2022/01/20 01:30:24;;;;;;;20.90;6.75;;;7.20;99.90;;;;;;5054121;28;20239;-64
2022/01/20 01:32:54;;;;;;;11.65;4.63;;;7.20;99.90;;;;;;5054519;28;20240;-64
2022/01/20 01:35:23;;;;;;;19.98;9.35;;;7.20;99.90;;;;;;5055098;28;20240;-64
2022/01/20 01:40:38;;;;;;;20.05;5.97;;;7.10;99.90;;;;;;5055026;28;20236;-63
2022/01/20 01:43:17;;;;;;;14.18;5.07;;;7.10;99.90;;;;;;5054604;28;20234;-64
2022/01/20 01:45:44;;;;;;;19.38;7.45;;;7.10;99.90;;;;;;5054790;28;20600;-64
2022/01/20 01:48:12;;;;;;;39.20;18.15;;;7.00;99.90;;;;;;5054486;28;20233;-64
2022/01/20 01:50:39;;;;;;;20.80;6.65;;;6.90;99.90;;;;;;5054845;28;20582;-64
2022/01/20 01:53:08;;;;;;;11.95;6.03;;;6.90;99.90;;;;;;5054226;28;20233;-64
2022/01/20 01:55:36;;;;;;;14.82;4.28;;;6.90;99.90;;;;;;5054782;28;20228;-64
2022/01/20 01:58:03;;;;;;;16.67;5.30;;;6.90;99.90;;;;;;5054444;28;20242;-64
2022/01/20 02:00:31;;;;;;;13.43;5.75;;;6.80;99.90;;;;;;5054658;28;20233;-64
2022/01/20 02:02:59;;;;;;;10.75;4.10;;;6.80;99.90;;;;;;5054162;28;20307;-64
2022/01/20 02:05:28;;;;;;;10.73;6.25;;;6.80;99.90;;;;;;5054333;28;20316;-65
2022/01/20 02:19:08;;;;;;;20.48;4.50;;;6.70;99.90;;;;;;5033910;28;20230;-65
2022/01/20 02:21:48;;;;;;;27.45;14.02;;;6.70;99.90;;;;;;5033341;28;20224;-64
2022/01/20 02:24:14;;;;;;;13.32;5.80;;;6.70;99.90;;;;;;5032926;28;20226;-64
2022/01/20 02:26:41;;;;;;;9.50;4.55;;;6.70;99.90;;;;;;5029465;28;20226;-64
2022/01/20 02:29:08;;;;;;;14.55;4.47;;;6.70;99.90;;;;;;5042563;28;20225;-64
2022/01/20 02:31:35;;;;;;;15.77;5.90;;;6.70;99.90;;;;;;5019854;28;20682;-64
2022/01/20 02:34:02;;;;;;;13.75;4.25;;;6.80;99.90;;;;;;5033360;28;20221;-64
2022/01/20 02:36:30;;;;;;;13.80;4.85;;;6.70;99.90;;;;;;5032887;28;20233;-64
2022/01/20 02:39:05;;;;;;;10.00;4.35;;;6.70;99.90;;;;;;5031523;28;20732;-64
2022/01/20 02:47:12;;;;;;;8.50;4.90;;;6.70;99.90;;;;;;5031935;28;20250;-64
2022/01/20 02:49:38;;;;;;;14.73;7.68;;;6.70;99.90;;;;;;5035181;28;20216;-63
2022/01/20 02:52:06;;;;;;;10.38;5.25;;;6.70;99.90;;;;;;5053014;28;20220;-65
2022/01/20 02:54:35;;;;;;;8.35;3.95;;;6.70;99.70;;;;;;5053360;28;20294;-64
2022/01/20 02:57:02;;;;;;;12.50;4.35;;;6.70;99.60;;;;;;5053122;28;20243;-64
2022/01/20 02:59:29;;;;;;;10.32;4.57;;;6.80;99.30;;;;;;5052651;28;20226;-65
2022/01/20 03:01:56;;;;;;;15.35;3.28;;;6.80;99.20;;;;;;5053525;28;20226;-64
2022/01/20 03:04:25;;;;;;;13.65;4.93;;;6.80;99.10;;;;;;5052783;28;20238;-64
2022/01/20 03:06:52;;;;;;;7.60;3.88;;;6.80;99.10;;;;;;5053270;28;20248;-65
2022/01/20 03:09:19;;;;;;;15.93;4.60;;;6.80;98.90;;;;;;5052607;28;20233;-64
2022/01/20 03:11:49;;;;;;;9.02;3.92;;;6.80;98.80;;;;;;5052672;28;20288;-64
2022/01/20 03:14:17;;;;;;;6.75;3.25;;;6.70;98.80;;;;;;5052957;28;20228;-64
2022/01/20 03:16:45;;;;;;;9.20;3.72;;;6.70;99.10;;;;;;5053180;28;20222;-64
2022/01/20 03:19:12;;;;;;;19.25;6.30;;;6.70;99.30;;;;;;5052728;28;20674;-64
2022/01/20 03:21:39;;;;;;;14.32;4.30;;;6.70;99.60;;;;;;5050426;28;20245;-64
2022/01/20 03:24:06;;;;;;;8.40;4.15;;;6.70;99.50;;;;;;5051397;28;20218;-64
2022/01/20 03:26:33;;;;;;;23.67;10.43;;;6.80;99.30;;;;;;5045519;28;20232;-65
2022/01/20 03:29:01;;;;;;;13.20;4.80;;;6.70;99.40;;;;;;5062267;28;20218;-65
2022/01/20 03:31:30;;;;;;;12.90;5.57;;;6.70;99.80;;;;;;5043725;28;20245;-64
2022/01/20 03:33:57;;;;;;;11.98;5.47;;;6.80;99.90;;;;;;5052304;28;20288;-64
2022/01/20 03:36:24;;;;;;;13.23;5.57;;;6.80;99.90;;;;;;5052319;28;20230;-64
2022/01/20 03:38:51;;;;;;;25.50;14.68;;;6.80;99.90;;;;;;5052987;28;20228;-64
2022/01/20 03:41:19;;;;;;;9.95;3.75;;;6.70;99.90;;;;;;5051877;28;20229;-64
2022/01/20 03:43:46;;;;;;;13.80;5.35;;;6.80;99.90;;;;;;5052200;28;20226;-64
2022/01/20 03:46:16;;;;;;;13.50;3.72;;;6.80;99.90;;;;;;5052286;28;20268;-66
2022/01/20 03:48:50;;;;;;;11.73;4.80;;;6.70;99.90;;;;;;5052194;28;20362;-64
2022/01/20 03:51:20;;;;;;;64.68;29.63;;;6.70;99.90;;;;;;5052262;28;20223;-64
2022/01/20 03:53:48;;;;;;;10.40;5.10;;;6.70;99.90;;;;;;5045506;28;21261;-65
2022/01/20 03:56:15;;;;;;;12.50;4.50;;;6.70;99.90;;;;;;5052181;28;20233;-64
2022/01/20 03:58:42;;;;;;;17.77;4.70;;;6.70;99.90;;;;;;5052045;28;20229;-64
2022/01/20 04:01:09;;;;;;;8.43;3.38;;;6.70;99.90;;;;;;5039442;28;20291;-64
2022/01/20 04:03:37;;;;;;;10.45;5.13;;;6.70;99.90;;;;;;5051328;28;20229;-64
2022/01/20 04:06:04;;;;;;;15.82;8.05;;;6.70;99.90;;;;;;5052209;28;20223;-64
2022/01/20 04:08:33;;;;;;;13.40;4.97;;;6.70;99.90;;;;;;5052180;28;20221;-62
2022/01/20 04:11:01;;;;;;;17.15;6.10;;;6.70;99.90;;;;;;5039571;28;20329;-64
2022/01/20 04:13:31;;;;;;;11.98;5.65;;;6.70;99.90;;;;;;5051917;28;20232;-65
2022/01/20 04:16:03;;;;;;;9.05;4.68;;;6.80;99.90;;;;;;5052600;28;20312;-64
2022/01/20 04:18:30;;;;;;;21.88;8.00;;;6.70;99.90;;;;;;5051852;28;20225;-65
2022/01/20 04:20:59;;;;;;;13.32;6.32;;;6.80;99.90;;;;;;5052129;28;20232;-65
2022/01/20 04:23:25;;;;;;;14.15;7.38;;;6.70;99.90;;;;;;5051365;28;20231;-65
2022/01/20 04:25:52;;;;;;;22.48;9.82;;;6.70;99.90;;;;;;5048999;28;20219;-65
2022/01/20 04:28:19;;;;;;;14.07;6.18;;;6.50;99.90;;;;;;5059749;28;20225;-65
2022/01/20 04:30:46;;;;;;;15.68;8.35;;;6.30;99.90;;;;;;5046656;28;20316;-65
2022/01/20 04:33:13;;;;;;;9.05;3.85;;;6.10;99.90;;;;;;5050136;28;20232;-65
2022/01/20 04:35:39;;;;;;;15.63;9.27;;;5.90;99.90;;;;;;5051793;28;20237;-66
2022/01/20 04:38:08;;;;;;;5.43;3.17;;;5.80;99.90;;;;;;5052047;28;20214;-65
2022/01/20 04:40:40;;;;;;;63.30;30.73;;;5.60;99.90;;;;;;5051698;28;20231;-65
2022/01/20 04:43:07;;;;;;;8.70;3.85;;;5.50;99.90;;;;;;5052217;28;20221;-65
2022/01/20 04:45:40;;;;;;;11.27;4.00;;;5.40;99.90;;;;;;5051759;28;20224;-64
2022/01/20 04:48:27;;;;;;;13.70;7.30;;;5.30;99.90;;;;;;5043773;28;20274;-65
2022/01/20 04:59:08;;;;;;;9.07;3.53;;;5.00;99.90;;;;;;5056093;28;20249;-65
2022/01/20 05:01:35;;;;;;;10.68;3.17;;;4.80;99.90;;;;;;5055465;28;20231;-65
2022/01/20 05:04:03;;;;;;;6.47;3.65;;;4.90;99.90;;;;;;5055644;28;20220;-64
2022/01/20 05:06:29;;;;;;;15.00;8.07;;;4.80;99.90;;;;;;5055365;28;20227;-65
2022/01/20 05:08:58;;;;;;;6.18;2.45;;;4.70;99.90;;;;;;5055498;28;20677;-65
2022/01/20 05:11:24;;;;;;;5.10;2.70;;;4.70;99.90;;;;;;5054763;28;20235;-65
2022/01/20 05:13:51;;;;;;;7.93;4.00;;;4.70;99.90;;;;;;5055259;28;20303;-64
2022/01/20 05:16:18;;;;;;;10.98;3.88;;;4.70;99.90;;;;;;5055214;28;20239;-65
2022/01/20 05:18:45;;;;;;;8.95;3.35;;;4.70;99.90;;;;;;5055468;28;20224;-64
2022/01/20 05:21:12;;;;;;;6.78;2.75;;;4.80;99.90;;;;;;5054813;28;20238;-64
2022/01/20 05:23:38;;;;;;;16.88;8.07;;;4.80;99.90;;;;;;5055362;28;20218;-64
2022/01/20 05:26:06;;;;;;;10.30;4.25;;;4.80;99.90;;;;;;5050218;28;20231;-64
2022/01/20 05:28:33;;;;;;;12.27;6.70;;;4.80;99.90;;;;;;5064118;28;20237;-64
2022/01/20 05:31:00;;;;;;;7.93;2.53;;;4.90;99.90;;;;;;5048114;28;20228;-64
2022/01/20 05:33:28;;;;;;;7.22;3.47;;;4.90;99.90;;;;;;5054447;28;20228;-64
2022/01/20 05:35:55;;;;;;;7.90;2.75;;;4.90;99.90;;;;;;5054651;28;20219;-64
2022/01/20 05:38:22;;;;;;;7.15;3.00;;;5.00;99.90;;;;;;5054669;28;20244;-64
2022/01/20 05:40:48;;;;;;;16.38;5.72;;;5.00;99.90;;;;;;5054953;28;20242;-65
2022/01/20 05:43:17;;;;;;;7.47;2.35;;;5.00;99.90;;;;;;5054627;28;20264;-65
2022/01/20 05:45:43;;;;;;;9.68;4.22;;;5.00;99.90;;;;;;5054893;28;20227;-65
2022/01/20 05:48:14;;;;;;;6.60;2.83;;;5.00;99.90;;;;;;5054919;28;20273;-65
2022/01/20 05:50:41;;;;;;;8.18;3.28;;;5.00;99.90;;;;;;5054487;28;20229;-65
2022/01/20 05:53:09;;;;;;;6.40;2.63;;;5.00;99.90;;;;;;5054847;28;20227;-65
2022/01/20 05:55:37;;;;;;;7.20;2.13;;;5.10;99.90;;;;;;5053931;28;20240;-65
2022/01/20 05:58:06;;;;;;;5.82;2.25;;;5.00;99.90;;;;;;5054754;28;20234;-63
2022/01/20 06:00:37;;;;;;;7.30;3.95;;;5.10;99.90;;;;;;5054071;28;20329;-64
2022/01/20 06:05:49;;;;;;;7.03;2.65;;;5.20;99.90;;;;;;5054169;28;20352;-64
2022/01/20 06:08:16;;;;;;;14.65;3.25;;;5.20;99.90;;;;;;5054392;28;20220;-66
2022/01/20 06:10:43;;;;;;;14.82;5.70;;;5.10;99.90;;;;;;5054008;28;20235;-64
2022/01/20 06:13:10;;;;;;;8.73;4.30;;;5.10;99.90;;;;;;5054452;28;20224;-64
2022/01/20 06:15:39;;;;;;;19.02;10.45;;;5.10;99.90;;;;;;5053968;28;20572;-64
2022/01/20 06:18:06;;;;;;;14.38;7.28;;;5.10;99.90;;;;;;5054532;28;20223;-64
2022/01/20 06:20:33;;;;;;;10.57;4.00;;;5.10;99.90;;;;;;5053468;28;20235;-65
2022/01/20 06:23:00;;;;;;;11.98;3.65;;;5.10;99.90;;;;;;5054225;28;20551;-65
2022/01/20 06:25:27;;;;;;;9.07;3.95;;;5.10;99.90;;;;;;5053944;28;20247;-64
2022/01/20 06:27:54;;;;;;;6.97;4.38;;;5.20;99.90;;;;;;5048503;28;20221;-64
2022/01/20 06:30:21;;;;;;;14.25;3.83;;;5.10;99.90;;;;;;5054122;28;20229;-65
2022/01/20 06:32:50;;;;;;;7.93;3.65;;;5.10;99.90;;;;;;5053515;28;20236;-65
2022/01/20 06:35:16;;;;;;;7.28;3.78;;;5.00;99.00;;;;;;5054050;28;20277;-65
2022/01/20 06:37:43;;;;;;;6.05;3.38;;;5.00;98.60;;;;;;5053528;28;20732;-65
2022/01/20 06:40:12;;;;;;;9.40;4.88;;;4.90;97.20;;;;;;5054190;28;20249;-64
2022/01/20 06:42:39;;;;;;;12.48;4.43;;;4.80;96.60;;;;;;5053399;28;20250;-65
2022/01/20 06:45:08;;;;;;;4.78;2.63;;;4.80;96.10;;;;;;5054033;28;20227;-64
2022/01/20 06:47:35;;;;;;;14.57;5.13;;;4.80;96.30;;;;;;5053226;28;20700;-64
2022/01/20 06:50:05;;;;;;;10.27;4.20;;;4.80;96.10;;;;;;5053864;28;20228;-64
2022/01/20 06:52:32;;;;;;;13.75;7.07;;;4.80;95.60;;;;;;5053207;28;20232;-64
2022/01/20 06:55:00;;;;;;;8.43;3.70;;;4.80;95.40;;;;;;5053746;28;20227;-64
2022/01/20 06:57:27;;;;;;;9.40;4.13;;;4.80;95.70;;;;;;5053657;28;20701;-64
2022/01/20 06:59:54;;;;;;;5.97;2.53;;;4.80;94.20;;;;;;5040401;28;20935;-63
2022/01/20 07:02:21;;;;;;;9.45;4.45;;;4.80;94.00;;;;;;5053338;28;20224;-63
2022/01/20 07:04:48;;;;;;;5.50;2.25;;;4.90;94.20;;;;;;5053107;28;20578;-65
2022/01/20 07:07:16;;;;;;;10.00;3.58;;;4.90;94.00;;;;;;5053272;28;20233;-65
2022/01/20 07:09:43;;;;;;;4.63;2.53;;;4.90;93.80;;;;;;5052938;28;20238;-65
2022/01/20 07:12:11;;;;;;;7.53;3.25;;;4.90;94.00;;;;;;5053249;28;20247;-65
2022/01/20 07:14:38;;;;;;;7.07;2.38;;;4.90;94.10;;;;;;5052988;28;20228;-65
2022/01/20 07:17:05;;;;;;;5.97;2.80;;;4.90;95.30;;;;;;5053231;28;20217;-64
2022/01/20 07:19:33;;;;;;;3.25;1.85;;;4.90;95.90;;;;;;5051892;28;20224;-65
2022/01/20 07:22:00;;;;;;;6.60;2.30;;;4.90;96.70;;;;;;5053075;28;20237;-65
2022/01/20 07:24:30;;;;;;;4.45;1.65;;;4.90;97.70;;;;;;5053187;28;20226;-63
2022/01/20 07:26:57;;;;;;;3.78;1.60;;;4.80;97.80;;;;;;5043960;28;20660;-64
2022/01/20 07:29:24;;;;;;;3.42;1.60;;;4.70;98.00;;;;;;5053118;28;20219;-63
2022/01/20 07:31:51;;;;;;;8.98;2.85;;;4.70;98.20;;;;;;5043670;28;20232;-66
2022/01/20 07:34:18;;;;;;;5.35;3.63;;;4.70;98.60;;;;;;5053053;28;20225;-64
2022/01/20 07:36:45;;;;;;;10.02;4.40;;;4.70;98.80;;;;;;5052506;28;20219;-64
2022/01/20 07:39:12;;;;;;;9.82;2.95;;;4.60;99.00;;;;;;5052788;28;20224;-64
2022/01/20 07:41:40;;;;;;;7.05;3.70;;;4.60;98.80;;;;;;5052429;28;20223;-65
2022/01/20 07:44:07;;;;;;;4.65;3.70;;;4.60;98.30;;;;;;5052986;28;20825;-65
2022/01/20 07:46:34;;;;;;;9.50;4.82;;;4.60;97.10;;;;;;5052371;28;20238;-65
2022/01/20 07:49:00;;;;;;;5.25;4.00;;;4.60;97.10;;;;;;5052908;28;20568;-65
2022/01/20 07:51:27;;;;;;;9.25;4.32;;;4.60;97.10;;;;;;5052682;28;20235;-64
2022/01/20 07:53:54;;;;;;;10.63;3.75;;;4.60;97.20;;;;;;5052156;28;20306;-65
2022/01/20 07:56:22;;;;;;;7.13;4.28;;;4.60;96.00;;;;;;5052702;28;20232;-65
2022/01/20 07:58:50;;;;;;;7.20;4.65;;;4.60;95.60;;;;;;5040985;28;20227;-64
2022/01/20 08:01:17;;;;;;;11.45;3.85;;;4.60;95.80;;;;;;5050615;28;20235;-64
2022/01/20 08:03:43;;;;;;;10.00;4.22;;;4.60;95.60;;;;;;5052251;28;20230;-65
2022/01/20 08:06:10;;;;;;;9.40;4.75;;;4.70;95.30;;;;;;5052602;28;20229;-65
2022/01/20 08:08:37;;;;;;;12.48;3.30;;;4.70;95.00;;;;;;5052080;28;20222;-65
2022/01/20 08:11:07;;;;;;;11.85;3.70;;;4.70;94.50;;;;;;5052384;28;20227;-65
2022/01/20 08:13:34;;;;;;;6.30;3.60;;;4.80;93.80;;;;;;5052445;28;20261;-65
2022/01/20 08:16:02;;;;;;;8.80;3.63;;;4.70;93.80;;;;;;5052087;28;20242;-64
2022/01/20 08:18:28;;;;;;;8.00;4.18;;;4.80;93.80;;;;;;5052392;28;20238;-64
2022/01/20 08:20:56;;;;;;;9.05;4.40;;;4.80;93.50;;;;;;5051623;28;20306;-64
2022/01/20 08:23:23;;;;;;;10.52;4.68;;;4.90;93.40;;;;;;5052251;28;20225;-64
2022/01/20 08:25:50;;;;;;;9.45;4.40;;;4.90;93.40;;;;;;5051813;28;20229;-64
2022/01/20 08:28:21;;;;;;;9.00;3.05;;;4.90;93.60;;;;;;5053329;28;20243;-64
2022/01/20 08:30:48;;;;;;;14.43;6.28;;;4.90;93.30;;;;;;5053352;28;20280;-65
2022/01/20 08:33:16;;;;;;;8.20;3.45;;;4.90;93.30;;;;;;5043162;28;20327;-65
2022/01/20 08:35:43;;;;;;;8.60;3.97;;;5.00;93.20;;;;;;5054603;28;20239;-65
2022/01/20 08:38:11;;;;;;;8.73;3.70;;;5.00;93.00;;;;;;5056111;28;20229;-66
2022/01/20 08:40:38;;;;;;;8.07;2.75;;;5.00;93.10;;;;;;5055918;28;20237;-65
2022/01/20 08:43:06;;;;;;;14.70;4.05;;;5.00;92.70;;;;;;5056155;28;20272;-65
2022/01/20 08:45:36;;;;;;;13.45;3.63;;;5.10;92.40;;;;;;5056170;28;20558;-65
2022/01/20 08:48:04;;;;;;;11.23;2.88;;;5.10;92.30;;;;;;5055684;28;20222;-65
2022/01/20 08:50:33;;;;;;;8.75;3.17;;;5.00;92.50;;;;;;5055992;28;20246;-63
2022/01/20 08:53:00;;;;;;;7.15;3.30;;;5.00;92.50;;;;;;5055459;28;20222;-64
2022/01/20 08:55:27;;;;;;;7.45;3.25;;;5.00;92.00;;;;;;5056092;28;20223;-63
2022/01/20 08:57:55;;;;;;;7.15;2.90;;;5.00;92.10;;;;;;5055317;28;20230;-64
2022/01/20 09:00:23;;;;;;;11.30;2.83;;;4.90;92.10;;;;;;5055887;28;20243;-64
2022/01/20 09:02:50;;;;;;;13.68;5.00;;;5.00;92.20;;;;;;5055438;28;20232;-64
2022/01/20 09:05:17;;;;;;;17.13;5.07;;;4.90;92.40;;;;;;5055946;28;20600;-64
2022/01/20 09:07:46;;;;;;;10.20;4.32;;;4.90;92.30;;;;;;5055306;28;20232;-64
2022/01/20 09:10:19;;;;;;;11.80;3.53;;;4.90;92.40;;;;;;5051256;28;20231;-64
2022/01/20 09:15:31;;;;;;;14.32;3.60;;;5.00;92.00;;;;;;5055603;28;20278;-64
2022/01/20 09:18:00;;;;;;;18.70;5.13;;;5.00;92.00;;;;;;5055137;28;20310;-64
2022/01/20 09:20:27;;;;;;;14.48;5.18;;;5.10;92.60;;;;;;5055184;28;20250;-64
2022/01/20 09:22:56;;;;;;;17.38;5.25;;;5.00;92.20;;;;;;5054962;28;20245;-64
2022/01/20 09:25:25;;;;;;;11.35;3.75;;;5.10;92.30;;;;;;5055361;28;20243;-64
2022/01/20 09:27:55;;;;;;;9.80;3.30;;;5.10;92.60;;;;;;5047905;28;20223;-64
2022/01/20 09:30:22;;;;;;;7.85;4.10;;;5.20;92.40;;;;;;5055116;28;20314;-64
2022/01/20 09:32:59;;;;;;;10.85;3.10;;;5.30;92.30;;;;;;5054820;28;20316;-64
2022/01/20 09:35:30;;;;;;;14.20;5.15;;;5.30;92.30;;;;;;5055016;28;20313;-65
2022/01/20 09:37:58;;;;;;;12.02;4.47;;;5.30;92.40;;;;;;5054854;28;20230;-64
2022/01/20 09:40:26;;;;;;;19.25;4.75;;;5.40;92.60;;;;;;5054859;28;20585;-64
2022/01/20 09:42:53;;;;;;;15.60;6.13;;;5.40;92.60;;;;;;5054259;28;20238;-64
2022/01/20 09:45:20;;;;;;;13.52;6.18;;;5.40;92.60;;;;;;5054927;28;20726;-64
2022/01/20 09:47:47;;;;;;;9.32;4.05;;;5.40;92.50;;;;;;5054508;28;20230;-64
2022/01/20 09:50:19;;;;;;;7.00;4.28;;;5.50;92.50;;;;;;5054792;28;20246;-64
2022/01/20 09:52:46;;;;;;;14.80;4.93;;;5.40;92.30;;;;;;5054450;28;20242;-64
2022/01/20 09:55:14;;;;;;;10.77;3.67;;;5.40;92.70;;;;;;5054690;28;20227;-64
2022/01/20 09:57:41;;;;;;;10.32;5.30;;;5.40;92.80;;;;;;5054814;28;20244;-65
2022/01/20 10:00:11;;;;;;;15.10;5.97;;;5.50;92.70;;;;;;5054324;28;20235;-64
2022/01/20 10:02:51;;;;;;;15.82;4.30;;;5.50;92.60;;;;;;5054777;28;20227;-65
2022/01/20 10:05:25;;;;;;;13.55;3.67;;;5.50;92.30;;;;;;5054291;28;20224;-65
2022/01/20 10:07:52;;;;;;;15.10;6.25;;;5.50;92.50;;;;;;5054482;28;20276;-64
2022/01/20 10:10:20;;;;;;;12.70;3.75;;;5.50;92.50;;;;;;5054178;28;20249;-65
2022/01/20 10:12:47;;;;;;;9.88;3.75;;;5.50;92.80;;;;;;5054176;28;20244;-65
2022/01/20 10:15:14;;;;;;;13.43;4.88;;;5.40;92.50;;;;;;5054060;28;20572;-65
2022/01/20 10:17:41;;;;;;;15.05;4.80;;;5.50;92.60;;;;;;5054114;28;20232;-64
2022/01/20 10:20:10;;;;;;;16.63;3.72;;;5.50;92.70;;;;;;5053728;28;20260;-65
2022/01/20 10:22:38;;;;;;;26.05;5.20;;;5.50;92.80;;;;;;5054251;28;20228;-65
2022/01/20 10:25:08;;;;;;;14.45;4.40;;;5.50;92.90;;;;;;5053835;28;20223;-65
2022/01/20 10:27:47;;;;;;;19.27;5.72;;;5.60;92.80;;;;;;5046518;28;20233;-64
2022/01/20 10:30:15;;;;;;;15.05;3.90;;;5.60;92.50;;;;;;5053565;28;20222;-64
2022/01/20 10:32:44;;;;;;;19.10;6.10;;;5.60;92.20;;;;;;5054349;28;20221;-64
2022/01/20 10:35:13;;;;;;;28.30;7.55;;;5.60;92.40;;;;;;5053505;28;20230;-64
2022/01/20 10:37:41;;;;;;;14.50;5.43;;;5.70;92.00;;;;;;5054032;28;20548;-64
2022/01/20 10:40:11;;;;;;;13.57;3.88;;;5.70;92.40;;;;;;5053469;28;20236;-64
2022/01/20 10:42:42;;;;;;;16.88;6.32;;;5.80;92.20;;;;;;5054025;28;20701;-64
2022/01/20 10:45:18;;;;;;;19.88;3.85;;;5.80;92.00;;;;;;5049790;28;20232;-64
2022/01/20 10:47:49;;;;;;;8.60;4.15;;;5.70;91.90;;;;;;5045574;28;20791;-64
2022/01/20 10:50:18;;;;;;;10.27;3.95;;;5.80;92.40;;;;;;5053483;28;20296;-64
2022/01/20 10:52:45;;;;;;;14.40;3.90;;;5.80;92.30;;;;;;5052838;28;20226;-65
2022/01/20 10:55:23;;;;;;;12.00;3.95;;;5.80;92.00;;;;;;5053297;28;20229;-64
2022/01/20 10:57:53;;;;;;;8.73;4.05;;;5.80;91.90;;;;;;5053365;28;20231;-63
2022/01/20 11:00:21;;;;;;;8.70;3.90;;;5.80;92.00;;;;;;5053036;28;20243;-64
2022/01/20 11:02:50;;;;;;;17.58;6.15;;;5.80;92.10;;;;;;5053451;28;20582;-64
2022/01/20 11:05:18;;;;;;;12.48;4.85;;;5.80;92.30;;;;;;5053346;28;20629;-65
2022/01/20 11:07:46;;;;;;;12.77;5.45;;;5.80;92.10;;;;;;5053509;28;20228;-65
2022/01/20 11:10:13;;;;;;;7.20;4.78;;;5.80;92.10;;;;;;5050397;28;20240;-65
2022/01/20 11:12:41;;;;;;;12.57;4.53;;;5.90;92.50;;;;;;5050474;28;20224;-65
2022/01/20 11:15:14;;;;;;;19.80;5.40;;;5.90;92.10;;;;;;5049070;28;20482;-64
2022/01/20 11:17:41;;;;;;;11.05;3.45;;;5.90;92.20;;;;;;5050596;28;20228;-67
2022/01/20 11:20:10;;;;;;;13.40;4.82;;;5.90;92.10;;;;;;5052539;28;20682;-64
2022/01/20 11:22:38;;;;;;;17.98;5.40;;;5.90;92.00;;;;;;5053087;28;20299;-64
2022/01/20 11:25:08;;;;;;;18.15;4.47;;;5.90;91.90;;;;;;5038667;28;20233;-64
2022/01/20 11:27:37;;;;;;;22.55;4.28;;;5.90;91.80;;;;;;5044830;28;20221;-64
2022/01/20 11:30:16;;;;;;;16.35;3.88;;;6.00;91.70;;;;;;5052477;28;20575;-64
2022/01/20 11:32:45;;;;;;;9.38;3.28;;;5.90;91.80;;;;;;5052951;28;20239;-65
2022/01/20 11:35:13;;;;;;;6.60;3.05;;;6.00;92.00;;;;;;5055596;28;20225;-65
2022/01/20 11:37:42;;;;;;;8.65;3.42;;;6.00;92.00;;;;;;5051219;28;20876;-65
2022/01/20 11:40:17;;;;;;;9.18;3.20;;;6.10;91.30;;;;;;5050744;28;20243;-64
2022/01/20 11:42:56;;;;;;;10.25;4.60;;;6.10;90.90;;;;;;5051220;28;20685;-64
2022/01/20 11:45:28;;;;;;;17.30;4.20;;;6.00;91.70;;;;;;5050633;28;20223;-65
2022/01/20 11:51:03;;;;;;;13.27;4.13;;;6.10;91.40;;;;;;5051086;28;20667;-65
2022/01/20 11:53:31;;;;;;;9.25;3.45;;;6.10;90.90;;;;;;5052522;28;20693;-65
2022/01/20 11:55:58;;;;;;;11.18;3.95;;;6.20;91.30;;;;;;5052275;28;20231;-64
2022/01/20 11:58:27;;;;;;;7.78;3.33;;;6.30;90.80;;;;;;5052451;28;20248;-64
2022/01/20 12:01:03;;;;;;;5.88;3.00;;;6.30;90.80;;;;;;5052089;28;20238;-64
2022/01/20 12:03:32;;;;;;;8.02;3.67;;;6.30;90.70;;;;;;5036878;28;20213;-64
2022/01/20 12:06:00;;;;;;;12.20;3.83;;;6.40;90.10;;;;;;5048971;28;20218;-64
2022/01/20 12:08:27;;;;;;;5.22;3.40;;;6.50;90.20;;;;;;5052359;28;20221;-64
2022/01/20 12:11:02;;;;;;;12.02;4.70;;;6.50;90.30;;;;;;5058456;28;20217;-64
2022/01/20 12:13:30;;;;;;;9.55;5.10;;;6.50;90.20;;;;;;5044444;28;20228;-64
2022/01/20 12:16:00;;;;;;;9.32;3.58;;;6.50;89.40;;;;;;5051994;28;20285;-64
2022/01/20 12:18:29;;;;;;;10.40;3.65;;;6.60;90.00;;;;;;5052616;28;20258;-64
2022/01/20 12:20:59;;;;;;;9.63;3.30;;;6.50;87.80;;;;;;5046935;28;20221;-64
2022/01/20 12:23:27;;;;;;;9.65;3.55;;;6.50;87.10;;;;;;5052306;28;20229;-64
2022/01/20 12:28:48;;;;;;;7.75;2.28;;;6.50;87.30;;;;;;5050886;28;20321;-64
2022/01/20 12:31:15;;;;;;;5.13;3.90;;;6.50;87.50;;;;;;5050525;28;20677;-64
2022/01/20 12:33:46;;;;;;;8.05;3.55;;;6.50;87.20;;;;;;5050277;28;20242;-64
2022/01/20 12:36:15;;;;;;;11.23;4.68;;;6.60;87.60;;;;;;5045536;28;20925;-64
2022/01/20 12:38:43;;;;;;;11.77;3.50;;;6.50;88.60;;;;;;5050627;28;20339;-64
2022/01/20 12:41:11;;;;;;;8.48;4.35;;;6.50;86.60;;;;;;5050808;28;20247;-64
2022/01/20 12:43:42;;;;;;;5.95;3.30;;;6.50;86.00;;;;;;5052008;28;20318;-64
2022/01/20 12:46:12;;;;;;;8.25;2.75;;;6.50;86.90;;;;;;5051732;28;20681;-64
2022/01/20 12:48:39;;;;;;;8.00;3.83;;;6.50;86.00;;;;;;5051812;28;20242;-64
2022/01/20 12:51:10;;;;;;;14.80;5.60;;;6.50;86.30;;;;;;5051518;28;20272;-64
2022/01/20 12:53:40;;;;;;;8.40;3.92;;;6.40;86.70;;;;;;5051975;28;20308;-64
2022/01/20 12:56:08;;;;;;;7.78;4.15;;;6.50;86.20;;;;;;5051711;28;20228;-64
2022/01/20 12:58:49;;;;;;;11.50;2.58;;;6.40;87.30;;;;;;5051885;28;20241;-64
2022/01/20 13:01:16;;;;;;;6.38;2.70;;;6.40;87.00;;;;;;5051594;28;20981;-64
2022/01/20 13:03:44;;;;;;;8.40;3.20;;;6.30;86.20;;;;;;5048840;28;20219;-64
2022/01/20 13:06:21;;;;;;;7.18;3.22;;;6.30;86.50;;;;;;5048685;28;20232;-64
2022/01/20 13:09:00;;;;;;;9.52;6.15;;;6.30;86.20;;;;;;5051894;28;20309;-64
2022/01/20 13:11:32;;;;;;;8.23;4.97;;;6.30;86.60;;;;;;5038779;28;20243;-65
2022/01/20 13:14:00;;;;;;;9.32;4.32;;;6.40;87.10;;;;;;5051743;28;20718;-65
2022/01/20 13:16:28;;;;;;;10.02;3.28;;;6.30;87.40;;;;;;5052515;28;20682;-65
2022/01/20 13:18:56;;;;;;;7.00;2.30;;;6.30;86.10;;;;;;5055415;28;20225;-65
2022/01/20 13:21:39;;;;;;;9.07;4.28;;;6.30;86.00;;;;;;5054889;28;20240;-65
2022/01/20 13:24:08;;;;;;;9.20;4.97;;;6.30;86.40;;;;;;5055096;28;20804;-65
2022/01/20 13:26:50;;;;;;;8.70;3.60;;;6.30;85.40;;;;;;5055504;28;20219;-65
2022/01/20 13:29:17;;;;;;;5.40;2.90;;;6.30;84.70;;;;;;5041662;28;20308;-64
2022/01/20 13:31:45;;;;;;;12.18;4.50;;;6.30;85.10;;;;;;5055209;28;20240;-64
2022/01/20 13:34:14;;;;;;;10.50;4.30;;;6.20;84.70;;;;;;5054060;28;20311;-65
2022/01/20 13:36:45;;;;;;;11.35;4.38;;;6.10;84.30;;;;;;5049163;28;20215;-65
2022/01/20 13:39:12;;;;;;;7.35;3.17;;;6.10;85.10;;;;;;5052590;28;20537;-65
2022/01/20 13:41:41;;;;;;;12.70;4.78;;;6.10;84.60;;;;;;5049094;28;20238;-65
2022/01/20 13:47:07;;;;;;;6.18;2.58;;;6.20;85.10;;;;;;5051246;28;20604;-64
2022/01/20 13:49:34;;;;;;;7.00;3.05;;;6.20;85.40;;;;;;5047575;28;20219;-65
2022/01/20 13:52:07;;;;;;;6.28;2.92;;;6.20;86.30;;;;;;5054653;28;20221;-64
2022/01/20 13:54:42;;;;;;;13.95;5.45;;;6.20;86.50;;;;;;5054612;28;20244;-64
2022/01/20 13:57:10;;;;;;;14.52;3.72;;;6.20;86.50;;;;;;5054701;28;20232;-64
2022/01/20 13:59:48;;;;;;;9.85;3.50;;;6.30;86.50;;;;;;5054316;28;20225;-64
2022/01/20 14:02:15;;;;;;;7.22;3.78;;;6.20;86.30;;;;;;5054283;28;20240;-64